createdAt,value
2018-09-23T00:01:24.318Z,9.70
2018-09-23T00:03:52.080Z,9.60
2018-09-23T00:06:20.054Z,9.60
2018-09-23T00:08:47.883Z,9.60
2018-09-23T00:11:15.844Z,9.60
2018-09-23T00:13:44.038Z,9.60
2018-09-23T00:16:12.030Z,9.60
2018-09-23T00:18:40.068Z,9.60
2018-09-23T00:21:07.972Z,9.50
2018-09-23T00:23:35.902Z,9.50
2018-09-23T00:26:03.937Z,9.50
2018-09-23T00:28:31.845Z,9.50
2018-09-23T00:31:00.499Z,9.50
2018-09-23T00:33:28.453Z,9.50
2018-09-23T00:35:56.392Z,9.50
2018-09-23T00:38:24.290Z,9.50
2018-09-23T00:40:52.543Z,9.50
2018-09-23T00:43:20.357Z,9.60
2018-09-23T00:45:48.814Z,9.50
2018-09-23T00:48:16.802Z,9.50
2018-09-23T00:50:44.797Z,9.50
2018-09-23T00:53:12.547Z,9.50
2018-09-23T00:55:40.451Z,9.40
2018-09-23T00:58:08.279Z,9.50
2018-09-23T01:00:36.276Z,9.50
2018-09-23T01:03:04.173Z,9.50
2018-09-23T01:05:32.045Z,9.50
2018-09-23T01:07:59.920Z,9.50
2018-09-23T01:10:28.033Z,9.50
2018-09-23T01:12:55.948Z,9.50
2018-09-23T01:15:24.294Z,9.50
2018-09-23T01:17:52.099Z,9.40
2018-09-23T01:20:21.132Z,9.50
2018-09-23T01:22:49.676Z,9.50
2018-09-23T01:25:17.533Z,9.50
2018-09-23T01:27:45.533Z,9.50
2018-09-23T01:30:13.566Z,9.50
2018-09-23T01:32:41.756Z,9.50
2018-09-23T01:35:09.637Z,9.50
2018-09-23T01:37:37.692Z,9.50
2018-09-23T01:40:05.908Z,9.50
2018-09-23T01:42:34.304Z,9.50
2018-09-23T01:45:02.419Z,9.50
2018-09-23T01:47:30.131Z,9.50
2018-09-23T01:49:58.036Z,9.50
2018-09-23T01:52:26.067Z,9.50
2018-09-23T01:54:54.088Z,9.50
2018-09-23T01:57:22.028Z,9.50
2018-09-23T01:59:49.998Z,9.50
2018-09-23T02:02:17.885Z,9.50
2018-09-23T02:04:45.724Z,9.50
2018-09-23T02:07:13.712Z,9.50
2018-09-23T02:09:41.972Z,9.50
2018-09-23T02:12:10.048Z,9.50
2018-09-23T02:14:38.062Z,9.50
2018-09-23T02:17:06.109Z,9.50
2018-09-23T02:19:33.936Z,9.50
2018-09-23T02:22:02.010Z,9.50
2018-09-23T02:24:30.001Z,9.60
2018-09-23T02:26:57.894Z,9.60
2018-09-23T02:29:26.062Z,9.50
2018-09-23T02:31:54.033Z,9.50
2018-09-23T02:34:21.959Z,9.60
2018-09-23T02:36:50.109Z,9.60
2018-09-23T02:39:18.133Z,9.60
2018-09-23T02:41:45.924Z,9.60
2018-09-23T02:44:13.690Z,9.50
2018-09-23T02:46:41.434Z,9.50
2018-09-23T02:49:09.397Z,9.50
2018-09-23T02:51:37.351Z,9.50
2018-09-23T02:54:05.314Z,9.50
2018-09-23T02:56:33.388Z,9.50
2018-09-23T02:59:01.232Z,9.50
2018-09-23T03:01:29.184Z,9.50
2018-09-23T03:03:57.053Z,9.50
2018-09-23T03:06:25.029Z,9.50
2018-09-23T03:08:52.991Z,9.50
2018-09-23T03:11:20.858Z,9.50
2018-09-23T03:13:49.216Z,9.60
2018-09-23T03:16:17.061Z,9.60
2018-09-23T03:18:45.138Z,9.60
2018-09-23T03:21:13.105Z,9.60
2018-09-23T03:23:40.967Z,9.70
2018-09-23T03:26:08.932Z,9.70
2018-09-23T03:28:36.896Z,9.60
2018-09-23T03:31:04.983Z,9.70
2018-09-23T03:33:32.862Z,9.70
2018-09-23T03:36:00.936Z,9.70
2018-09-23T03:38:29.116Z,9.70
2018-09-23T03:40:57.097Z,9.70
2018-09-23T03:43:25.021Z,9.70
2018-09-23T03:45:52.888Z,9.70
2018-09-23T03:48:20.778Z,9.70
2018-09-23T03:50:48.730Z,9.70
2018-09-23T03:53:16.565Z,9.70
2018-09-23T03:55:44.414Z,9.70
2018-09-23T03:58:12.339Z,9.70
2018-09-23T04:00:40.375Z,9.70
2018-09-23T04:03:08.296Z,9.70
2018-09-23T04:05:36.189Z,9.70
2018-09-23T04:08:04.003Z,9.70
2018-09-23T04:10:31.921Z,9.70
2018-09-23T04:12:59.663Z,9.70
2018-09-23T04:15:27.987Z,9.70
2018-09-23T04:17:55.806Z,9.80
2018-09-23T04:20:23.778Z,9.80
2018-09-23T04:22:52.028Z,9.80
2018-09-23T04:25:21.075Z,9.80
2018-09-23T04:27:49.408Z,9.80
2018-09-23T04:30:32.015Z,9.80
2018-09-23T04:33:00.217Z,9.80
2018-09-23T04:35:28.103Z,9.70
2018-09-23T04:37:55.935Z,9.80
2018-09-23T04:40:23.670Z,9.80
2018-09-23T04:42:51.861Z,9.70
2018-09-23T04:45:19.802Z,9.70
2018-09-23T04:47:47.628Z,9.70
2018-09-23T04:50:15.724Z,9.70
2018-09-23T04:52:43.548Z,9.70
2018-09-23T04:55:11.828Z,9.70
2018-09-23T04:57:39.867Z,9.60
2018-09-23T05:00:07.765Z,9.60
2018-09-23T05:02:35.871Z,9.70
2018-09-23T05:05:03.782Z,9.70
2018-09-23T05:07:31.668Z,9.70
2018-09-23T05:09:59.606Z,9.70
2018-09-23T05:12:27.425Z,9.70
2018-09-23T05:14:56.267Z,9.60
2018-09-23T05:17:24.418Z,9.60
2018-09-23T05:19:52.385Z,9.60
2018-09-23T05:22:20.332Z,9.60
2018-09-23T05:24:48.145Z,9.70
2018-09-23T05:27:16.457Z,9.60
2018-09-23T05:29:44.775Z,9.60
2018-09-23T05:32:13.233Z,9.70
2018-09-23T05:35:12.811Z,9.70
2018-09-23T05:37:40.933Z,9.70
2018-09-23T05:40:09.359Z,9.70
2018-09-23T05:42:38.622Z,9.70
2018-09-23T05:45:07.979Z,9.70
2018-09-23T05:47:36.136Z,9.70
2018-09-23T05:50:04.516Z,9.80
2018-09-23T05:52:33.561Z,9.80
2018-09-23T05:55:01.919Z,9.80
2018-09-23T05:57:30.011Z,9.90
2018-09-23T05:59:58.956Z,9.90
2018-09-23T06:02:27.255Z,9.90
2018-09-23T06:04:55.853Z,10.00
2018-09-23T06:07:24.231Z,10.00
2018-09-23T06:09:52.347Z,10.00
2018-09-23T06:12:20.474Z,10.00
2018-09-23T06:14:49.047Z,10.10
2018-09-23T06:17:17.052Z,10.10
2018-09-23T06:19:45.291Z,10.10
2018-09-23T06:22:13.492Z,10.20
2018-09-23T06:24:41.547Z,10.20
2018-09-23T06:27:09.955Z,10.20
2018-09-23T06:29:37.798Z,10.20
2018-09-23T06:32:06.144Z,10.20
2018-09-23T06:34:34.023Z,10.20
2018-09-23T06:37:02.453Z,10.20
2018-09-23T06:39:30.450Z,10.30
2018-09-23T06:41:58.541Z,10.20
2018-09-23T06:44:26.862Z,10.30
2018-09-23T06:46:55.374Z,10.30
2018-09-23T06:49:23.776Z,10.30
2018-09-23T06:51:51.851Z,10.30
2018-09-23T06:54:19.953Z,10.30
2018-09-23T06:56:48.184Z,10.40
2018-09-23T06:59:16.412Z,10.40
2018-09-23T07:01:45.104Z,10.40
2018-09-23T07:04:13.160Z,10.40
2018-09-23T07:06:41.290Z,10.50
2018-09-23T07:09:09.433Z,10.50
2018-09-23T07:11:37.686Z,10.50
2018-09-23T07:14:05.902Z,10.60
2018-09-23T07:16:34.526Z,10.60
2018-09-23T07:19:03.114Z,10.70
2018-09-23T07:21:31.410Z,10.70
2018-09-23T07:23:59.342Z,10.70
2018-09-23T07:26:27.413Z,10.70
2018-09-23T07:28:55.378Z,10.70
2018-09-23T07:31:23.839Z,10.80
2018-09-23T07:33:52.134Z,10.80
2018-09-23T07:36:20.288Z,10.80
2018-09-23T07:38:48.290Z,10.80
2018-09-23T07:41:16.239Z,10.80
2018-09-23T07:43:44.672Z,10.90
2018-09-23T07:46:13.101Z,10.90
2018-09-23T07:48:41.347Z,10.90
2018-09-23T07:51:09.464Z,11.00
2018-09-23T07:53:38.010Z,11.00
2018-09-23T07:56:08.371Z,11.10
2018-09-23T07:58:36.648Z,11.10
2018-09-23T08:01:04.990Z,11.20
2018-09-23T08:03:33.492Z,11.20
2018-09-23T08:06:01.693Z,11.20
2018-09-23T08:08:29.880Z,11.30
2018-09-23T08:10:58.768Z,11.30
2018-09-23T08:13:27.125Z,11.40
2018-09-23T08:15:55.705Z,11.50
2018-09-23T08:18:23.691Z,11.50
2018-09-23T08:20:52.163Z,11.60
2018-09-23T08:23:20.269Z,11.60
2018-09-23T08:25:48.281Z,11.70
2018-09-23T08:28:16.177Z,11.80
2018-09-23T08:30:44.273Z,11.90
2018-09-23T08:33:12.242Z,11.90
2018-09-23T08:35:40.495Z,12.00
2018-09-23T08:38:08.949Z,12.10
2018-09-23T08:40:37.232Z,12.10
2018-09-23T08:43:06.055Z,12.10
2018-09-23T08:45:34.943Z,12.20
2018-09-23T08:48:03.217Z,12.30
2018-09-23T08:50:31.493Z,12.30
2018-09-23T08:52:59.727Z,12.30
2018-09-23T08:55:27.712Z,12.20
2018-09-23T08:57:55.730Z,12.10
2018-09-23T09:00:27.880Z,12.20
2018-09-23T09:02:56.449Z,12.20
2018-09-23T09:05:25.257Z,12.20
2018-09-23T09:07:54.307Z,12.30
2018-09-23T09:10:23.514Z,12.30
2018-09-23T09:12:51.921Z,12.30
2018-09-23T09:15:20.123Z,12.40
2018-09-23T09:17:48.107Z,12.50
2018-09-23T09:20:16.718Z,12.50
2018-09-23T09:22:45.623Z,12.60
2018-09-23T09:25:14.160Z,12.60
2018-09-23T09:27:42.835Z,12.60
2018-09-23T09:30:10.802Z,12.60
2018-09-23T09:32:39.358Z,12.80
2018-09-23T09:35:07.617Z,12.80
2018-09-23T09:37:35.963Z,12.90
2018-09-23T09:40:04.211Z,12.90
2018-09-23T09:42:34.431Z,12.90
2018-09-23T09:45:02.439Z,12.80
2018-09-23T09:47:30.649Z,12.80
2018-09-23T09:49:58.992Z,12.80
2018-09-23T09:52:27.249Z,12.90
2018-09-23T09:54:55.748Z,12.90
2018-09-23T09:57:24.186Z,12.80
2018-09-23T09:59:53.893Z,12.80
2018-09-23T10:02:22.419Z,12.80
2018-09-23T10:04:51.138Z,12.80
2018-09-23T10:07:19.525Z,12.90
2018-09-23T10:09:47.660Z,13.00
2018-09-23T10:12:15.973Z,13.00
2018-09-23T10:14:48.316Z,13.00
2018-09-23T10:17:16.473Z,13.10
2018-09-23T10:19:44.640Z,13.10
2018-09-23T10:22:13.167Z,13.20
2018-09-23T10:24:42.187Z,13.40
2018-09-23T10:27:10.837Z,13.40
2018-09-23T10:29:39.033Z,13.50
2018-09-23T10:32:06.962Z,13.60
2018-09-23T10:34:34.970Z,13.60
2018-09-23T10:37:02.868Z,13.60
2018-09-23T10:39:31.107Z,13.70
2018-09-23T10:41:59.394Z,13.80
2018-09-23T10:44:27.658Z,13.80
2018-09-23T10:46:57.117Z,13.90
2018-09-23T10:49:25.554Z,13.90
2018-09-23T10:51:54.645Z,14.10
2018-09-23T10:54:22.907Z,14.00
2018-09-23T10:56:51.137Z,14.10
2018-09-23T10:59:19.023Z,14.10
2018-09-23T11:01:47.033Z,14.10
2018-09-23T11:04:14.993Z,14.10
2018-09-23T11:06:44.071Z,14.10
2018-09-23T11:09:12.082Z,14.00
2018-09-23T11:11:40.307Z,14.10
2018-09-23T11:14:09.115Z,14.00
2018-09-23T11:16:37.423Z,14.00
2018-09-23T11:19:06.169Z,14.10
2018-09-23T11:21:35.107Z,14.10
2018-09-23T11:24:05.126Z,14.10
2018-09-23T11:26:35.111Z,14.20
2018-09-23T11:29:03.765Z,14.40
2018-09-23T11:31:32.087Z,14.60
2018-09-23T11:34:00.146Z,14.80
2018-09-23T11:36:28.200Z,14.80
2018-09-23T11:38:56.444Z,14.70
2018-09-23T11:41:25.400Z,14.80
2018-09-23T11:43:53.486Z,14.70
2018-09-23T11:46:22.132Z,14.70
2018-09-23T11:48:50.430Z,14.70
2018-09-23T11:51:19.095Z,14.70
2018-09-23T11:53:50.866Z,14.80
2018-09-23T11:56:19.810Z,14.80
2018-09-23T11:58:48.245Z,14.70
2018-09-23T12:01:16.740Z,14.70
2018-09-23T12:03:45.496Z,14.70
2018-09-23T12:06:14.377Z,14.70
2018-09-23T12:08:42.556Z,14.70
2018-09-23T12:11:11.366Z,14.60
2018-09-23T12:13:40.318Z,14.50
2018-09-23T12:16:11.500Z,14.50
2018-09-23T12:18:39.675Z,14.50
2018-09-23T12:21:08.851Z,14.60
2018-09-23T12:23:37.294Z,14.80
2018-09-23T12:26:06.160Z,14.90
2018-09-23T12:28:34.645Z,15.00
2018-09-23T12:31:02.774Z,15.10
2018-09-23T12:33:31.336Z,15.20
2018-09-23T12:36:02.787Z,15.30
2018-09-23T12:38:32.888Z,15.30
2018-09-23T12:41:01.312Z,15.50
2018-09-23T12:43:29.786Z,15.70
2018-09-23T12:46:00.081Z,15.90
2018-09-23T12:48:28.737Z,16.10
2018-09-23T12:50:57.073Z,16.20
2018-09-23T12:53:26.059Z,16.20
2018-09-23T12:55:58.295Z,16.30
2018-09-23T12:58:29.059Z,16.30
2018-09-23T13:00:57.997Z,16.40
2018-09-23T13:03:26.190Z,16.50
2018-09-23T13:05:54.334Z,16.50
2018-09-23T13:08:22.998Z,16.60
2018-09-23T13:10:51.843Z,16.60
2018-09-23T13:13:21.373Z,16.60
2018-09-23T13:15:50.656Z,16.60
2018-09-23T13:18:18.902Z,16.50
2018-09-23T13:20:47.135Z,16.50
2018-09-23T13:23:15.543Z,16.60
2018-09-23T13:25:44.113Z,16.60
2018-09-23T13:28:12.216Z,16.70
2018-09-23T13:30:43.157Z,16.70
2018-09-23T13:33:11.633Z,16.70
2018-09-23T13:35:40.089Z,16.70
2018-09-23T13:38:08.382Z,16.70
2018-09-23T13:40:36.832Z,16.80
2018-09-23T13:43:05.189Z,16.70
2018-09-23T13:45:33.172Z,16.70
2018-09-23T13:48:03.059Z,16.80
2018-09-23T13:50:32.514Z,16.70
2018-09-23T13:53:02.092Z,16.80
2018-09-23T13:55:30.046Z,16.80
2018-09-23T13:57:58.334Z,16.80
2018-09-23T14:00:27.509Z,16.90
2018-09-23T14:02:55.648Z,16.90
2018-09-23T14:05:23.899Z,16.90
2018-09-23T14:07:51.831Z,16.90
2018-09-23T14:10:19.779Z,16.90
2018-09-23T14:12:48.433Z,16.90
2018-09-23T14:15:16.997Z,17.00
2018-09-23T14:17:45.287Z,17.00
2018-09-23T14:20:13.578Z,16.90
2018-09-23T14:22:43.248Z,16.50
2018-09-23T14:25:11.464Z,15.90
2018-09-23T14:27:39.688Z,15.60
2018-09-23T14:30:08.136Z,15.20
2018-09-23T14:32:37.213Z,15.00
2018-09-23T14:35:05.366Z,14.80
2018-09-23T14:37:34.347Z,14.70
2018-09-23T14:40:02.954Z,14.60
2018-09-23T14:42:31.595Z,14.50
2018-09-23T14:44:59.698Z,13.90
2018-09-23T14:47:27.770Z,13.70
2018-09-23T14:49:56.200Z,13.40
2018-09-23T14:52:24.908Z,13.10
2018-09-23T14:54:54.915Z,12.90
2018-09-23T15:11:43.442Z,11.80
2018-09-23T15:14:11.825Z,11.80
2018-09-23T15:16:40.603Z,11.70
2018-09-23T15:19:09.496Z,11.70
2018-09-23T15:21:38.192Z,11.70
2018-09-23T15:24:07.399Z,11.60
2018-09-23T15:26:36.382Z,11.60
2018-09-23T15:29:04.927Z,11.60
2018-09-23T15:31:33.829Z,11.60
2018-09-23T15:34:02.526Z,11.60
2018-09-23T15:36:33.513Z,11.50
2018-09-23T15:39:01.813Z,11.50
2018-09-23T15:41:30.061Z,11.50
2018-09-23T15:43:59.275Z,11.50
2018-09-23T15:46:27.260Z,11.50
2018-09-23T15:48:55.604Z,11.50
2018-09-23T15:51:23.605Z,11.50
2018-09-23T15:53:51.729Z,11.50
2018-09-23T15:56:20.056Z,11.50
2018-09-23T15:58:48.207Z,11.50
2018-09-23T16:01:16.068Z,11.50
2018-09-23T16:03:44.603Z,11.50
2018-09-23T16:06:12.883Z,11.50
2018-09-23T16:08:41.003Z,11.50
2018-09-23T16:11:09.174Z,11.40
2018-09-23T16:13:37.600Z,11.40
2018-09-23T16:16:06.195Z,11.30
2018-09-23T16:18:34.413Z,11.30
2018-09-23T16:21:02.782Z,11.30
2018-09-23T16:23:31.262Z,11.30
2018-09-23T16:25:59.252Z,11.30
2018-09-23T16:28:27.891Z,11.30
2018-09-23T16:30:56.096Z,11.30
2018-09-23T16:33:24.333Z,11.30
2018-09-23T16:35:53.353Z,11.30
2018-09-23T16:38:21.548Z,11.30
2018-09-23T16:40:50.054Z,11.20
2018-09-23T16:43:18.355Z,11.10
2018-09-23T16:45:46.844Z,11.10
2018-09-23T16:48:15.343Z,11.00
2018-09-23T16:50:44.141Z,10.90
2018-09-23T16:53:12.560Z,10.90
2018-09-23T16:55:41.694Z,10.80
2018-09-23T16:58:10.154Z,10.80
2018-09-23T17:00:38.496Z,10.80
2018-09-23T17:03:07.172Z,10.80
2018-09-23T17:05:35.379Z,10.70
2018-09-23T17:08:04.132Z,10.70
2018-09-23T17:10:32.625Z,10.60
2018-09-23T17:13:00.975Z,10.60
2018-09-23T17:15:30.273Z,10.50
2018-09-23T17:17:58.323Z,10.40
2018-09-23T17:20:26.656Z,10.40
2018-09-23T17:22:55.540Z,10.30
2018-09-23T17:25:23.601Z,10.30
2018-09-23T17:27:53.210Z,10.30
2018-09-23T17:30:21.546Z,10.20
2018-09-23T17:32:50.121Z,10.20
2018-09-23T17:35:18.454Z,10.10
2018-09-23T17:37:47.112Z,10.10
2018-09-23T17:40:15.107Z,10.10
2018-09-23T17:42:44.418Z,10.10
2018-09-23T17:45:12.671Z,10.10
2018-09-23T17:47:41.659Z,10.10
2018-09-23T17:50:09.948Z,10.10
2018-09-23T17:52:39.071Z,10.10
2018-09-23T17:55:08.278Z,10.10
2018-09-23T17:57:37.732Z,10.10
2018-09-23T18:00:06.497Z,10.00
2018-09-23T18:02:35.111Z,9.90
2018-09-23T18:05:05.279Z,9.70
2018-09-23T18:07:33.924Z,9.60
2018-09-23T18:10:04.207Z,9.50
2018-09-23T18:12:34.428Z,9.40
2018-09-23T18:15:04.494Z,9.30
2018-09-23T18:17:32.784Z,9.30
2018-09-23T18:20:00.967Z,9.20
2018-09-23T18:22:29.587Z,9.20
2018-09-23T18:24:57.701Z,9.10
2018-09-23T18:27:25.502Z,9.10
2018-09-23T18:29:53.462Z,9.00
2018-09-23T18:32:22.112Z,8.90
2018-09-23T18:34:50.208Z,8.90
2018-09-23T18:37:18.190Z,8.80
2018-09-23T18:39:46.701Z,8.80
2018-09-23T18:42:15.215Z,8.70
2018-09-23T18:44:43.298Z,8.70
2018-09-23T18:47:11.267Z,8.70
2018-09-23T18:49:39.753Z,8.60
2018-09-23T18:52:08.159Z,8.60
2018-09-23T18:54:42.022Z,8.60
2018-09-23T18:57:11.867Z,8.60
2018-09-23T18:59:40.262Z,8.60
2018-09-23T19:02:08.614Z,8.60
2018-09-23T19:04:37.105Z,8.50
2018-09-23T19:07:05.243Z,8.50
2018-09-23T19:09:33.573Z,8.50
2018-09-23T19:12:01.697Z,8.50
2018-09-23T19:14:29.962Z,8.40
2018-09-23T19:16:58.782Z,8.40
2018-09-23T19:19:33.246Z,8.40
2018-09-23T19:22:02.161Z,8.40
2018-09-23T19:24:30.384Z,8.40
2018-09-23T19:26:58.365Z,8.30
2018-09-23T19:29:26.938Z,8.30
2018-09-23T19:31:55.431Z,8.30
2018-09-23T19:34:25.232Z,8.30
2018-09-23T19:36:53.403Z,8.30
2018-09-23T19:39:21.909Z,8.20
2018-09-23T19:41:50.048Z,8.20
2018-09-23T19:44:18.353Z,8.10
2018-09-23T19:46:47.618Z,8.10
2018-09-23T19:49:16.034Z,8.00
2018-09-23T19:51:44.902Z,8.00
2018-09-23T19:54:14.549Z,7.90
2018-09-23T19:56:43.050Z,7.90
2018-09-23T19:59:11.947Z,7.80
2018-09-23T20:01:40.196Z,7.80
2018-09-23T20:04:09.966Z,7.70
2018-09-23T20:06:38.133Z,7.70
2018-09-23T20:09:08.720Z,7.60
2018-09-23T20:11:38.582Z,7.50
2018-09-23T20:14:07.534Z,7.50
2018-09-23T20:16:37.191Z,7.40
2018-09-23T20:19:06.065Z,7.40
2018-09-23T20:21:35.425Z,7.40
2018-09-23T20:24:03.788Z,7.40
2018-09-23T20:26:32.447Z,7.30
2018-09-23T20:29:01.527Z,7.30
2018-09-23T20:31:29.928Z,7.20
2018-09-23T20:33:58.764Z,7.20
2018-09-23T20:36:27.637Z,7.20
2018-09-23T20:38:55.688Z,7.20
2018-09-23T20:41:23.697Z,7.10
2018-09-23T20:43:52.538Z,7.10
2018-09-23T20:46:20.689Z,7.10
2018-09-23T20:48:49.136Z,7.10
2018-09-23T20:51:17.118Z,7.10
2018-09-23T20:53:45.545Z,7.10
2018-09-23T20:56:13.415Z,7.10
2018-09-23T20:58:41.792Z,7.20
2018-09-23T21:01:10.470Z,7.10
2018-09-23T21:03:38.556Z,7.20
2018-09-23T21:06:07.537Z,7.20
2018-09-23T21:08:35.565Z,7.20
2018-09-23T21:11:03.801Z,7.10
2018-09-23T21:13:32.221Z,7.10
2018-09-23T21:16:01.878Z,7.10
2018-09-23T21:18:29.973Z,7.10
2018-09-23T21:20:58.134Z,7.10
2018-09-23T21:23:26.299Z,7.10
2018-09-23T21:25:54.651Z,7.10
2018-09-23T21:28:22.939Z,7.10
2018-09-23T21:30:50.993Z,7.10
2018-09-23T21:33:19.293Z,7.10
2018-09-23T21:35:47.661Z,7.10
2018-09-23T21:38:15.568Z,7.00
2018-09-23T21:40:44.432Z,7.00
2018-09-23T21:43:12.647Z,7.00
2018-09-23T21:45:40.670Z,6.90
2018-09-23T21:48:08.767Z,6.90
2018-09-23T21:50:36.649Z,6.90
2018-09-23T21:53:04.694Z,6.90
2018-09-23T21:55:32.782Z,6.80
2018-09-23T21:58:01.554Z,6.80
2018-09-23T22:00:35.180Z,6.80
2018-09-23T22:03:03.179Z,6.80
2018-09-23T22:05:30.998Z,6.80
2018-09-23T22:07:58.830Z,6.80
2018-09-23T22:10:26.923Z,6.80
2018-09-23T22:12:55.091Z,6.80
2018-09-23T22:15:25.921Z,6.80
2018-09-23T22:17:54.939Z,6.80
2018-09-23T22:20:23.575Z,6.70
2018-09-23T22:22:51.901Z,6.60
2018-09-23T22:25:20.376Z,6.50
2018-09-23T22:27:48.688Z,6.50
2018-09-23T22:30:16.778Z,6.40
2018-09-23T22:32:45.587Z,6.30
2018-09-23T22:35:13.588Z,6.30
2018-09-23T22:37:41.663Z,6.20
2018-09-23T22:40:09.831Z,6.20
2018-09-23T22:42:38.407Z,6.10
2018-09-23T22:45:06.825Z,6.10
2018-09-23T22:47:35.013Z,6.10
2018-09-23T22:50:03.350Z,6.10
2018-09-23T22:52:31.896Z,6.10
2018-09-23T22:54:59.773Z,6.00
2018-09-23T22:57:27.646Z,6.00
2018-09-23T22:59:55.948Z,6.00
2018-09-23T23:02:23.696Z,6.00
2018-09-23T23:04:51.535Z,6.00
2018-09-23T23:07:19.503Z,6.00
2018-09-23T23:09:47.770Z,6.00
2018-09-23T23:12:15.663Z,6.10
2018-09-23T23:14:44.540Z,6.00
2018-09-23T23:17:12.449Z,6.00
2018-09-23T23:19:40.257Z,5.90
2018-09-23T23:22:08.105Z,5.90
2018-09-23T23:24:36.205Z,5.90
2018-09-23T23:27:04.237Z,5.90
2018-09-23T23:29:32.049Z,5.90
2018-09-23T23:32:00.453Z,5.90
2018-09-23T23:34:28.346Z,5.90
2018-09-23T23:36:57.492Z,5.90
2018-09-23T23:39:25.557Z,5.90
2018-09-23T23:41:53.840Z,6.00
2018-09-23T23:44:28.116Z,5.90
2018-09-23T23:46:56.033Z,6.00
2018-09-23T23:49:23.832Z,6.00
2018-09-23T23:51:51.561Z,6.00
2018-09-23T23:54:19.569Z,6.10
2018-09-23T23:56:48.450Z,6.10
2018-09-23T23:59:16.444Z,6.20
